Time;durP1;ratioP1;P1;durP2;ratioP2;P2;SDS_P1;SDS_P2;PMS_P1;PMS_P2;Temp;Humidity;BMP_temperature;BMP_pressure;BME280_temperature;BME280_humidity;BME280_pressure;Samples;Min_cycle;Max_cycle;Signal;HPM_P1;HPM_P2
2022/01/28 00:01:34;;;;;;;7.97;6.20;;;;;;;;;;5037413;28;20406;-80
2022/01/28 00:04:11;;;;;;;8.90;5.83;;;;;;;;;;5038435;28;20413;-80
2022/01/28 00:06:37;;;;;;;7.27;5.30;;;;;;;;;;5038552;28;20386;-80
2022/01/28 00:09:04;;;;;;;6.83;5.37;;;;;;;;;;5037140;28;20465;-80
2022/01/28 00:11:30;;;;;;;7.97;5.13;;;;;;;;;;5038264;28;20923;-80
2022/01/28 00:14:10;;;;;;;8.77;5.67;;;;;;;;;;5037355;28;20500;-80
2022/01/28 00:17:12;;;;;;;8.57;5.93;;;;;;;;;;5037983;28;20474;-80
2022/01/28 00:38:37;;;;;;;8.93;6.00;;;;;;;;;;5040799;28;20803;-80
2022/01/28 00:41:04;;;;;;;9.73;5.70;;;;;;;;;;5038794;28;20410;-79
2022/01/28 00:43:30;;;;;;;8.17;6.30;;;;;;;;;;5036830;28;20418;-79
2022/01/28 00:45:56;;;;;;;8.03;5.97;;;;;;;;;;5038470;28;20407;-79
2022/01/28 00:48:22;;;;;;;8.77;6.07;;;;;;;;;;5038346;28;20782;-80
2022/01/28 00:50:48;;;;;;;6.90;5.47;;;;;;;;;;5037316;28;20422;-79
2022/01/28 00:53:14;;;;;;;7.10;5.27;;;;;;;;;;5038032;28;20447;-80
2022/01/28 00:55:40;;;;;;;6.20;4.80;;;;;;;;;;5037641;28;20391;-80
2022/01/28 00:58:06;;;;;;;9.00;5.20;;;;;;;;;;5037724;28;20403;-80
2022/01/28 01:00:32;;;;;;;7.37;5.10;;;;;;;;;;5037929;28;20423;-80
2022/01/28 01:02:58;;;;;;;8.67;5.77;;;;;;;;;;5036298;28;20919;-80
2022/01/28 01:05:24;;;;;;;9.30;6.43;;;;;;;;;;5036258;28;20942;-79
2022/01/28 01:07:51;;;;;;;9.23;5.40;;;;;;;;;;5037538;28;20407;-79
2022/01/28 01:10:17;;;;;;;6.60;5.40;;;;;;;;;;5038523;28;20427;-80
2022/01/28 01:12:45;;;;;;;6.57;5.20;;;;;;;;;;5038158;28;20814;-79
2022/01/28 01:15:14;;;;;;;7.90;6.00;;;;;;;;;;5037912;28;20435;-79
2022/01/28 01:17:58;;;;;;;6.90;6.00;;;;;;;;;;5037379;28;20439;-80
2022/01/28 01:25:51;;;;;;;9.63;6.23;;;;;;;;;;5037350;28;20453;-80
2022/01/28 01:28:19;;;;;;;9.20;7.30;;;;;;;;;;5036324;28;20469;-80
2022/01/28 01:30:46;;;;;;;8.97;6.20;;;;;;;;;;5037355;28;20422;-80
2022/01/28 01:33:13;;;;;;;10.73;7.00;;;;;;;;;;5037347;28;20441;-80
2022/01/28 01:35:40;;;;;;;8.93;7.23;;;;;;;;;;5037528;28;20411;-80
2022/01/28 01:38:08;;;;;;;10.63;6.40;;;;;;;;;;5036923;28;20411;-80
2022/01/28 01:40:43;;;;;;;9.07;7.23;;;;;;;;;;5037265;28;20427;-80
2022/01/28 01:43:28;;;;;;;9.20;7.07;;;;;;;;;;5037598;28;20394;-80
2022/01/28 01:54:08;;;;;;;11.67;7.40;;;;;;;;;;5037004;28;20445;-80
2022/01/28 01:56:35;;;;;;;10.47;7.70;;;;;;;;;;5035939;28;20443;-80
2022/01/28 01:59:01;;;;;;;9.10;7.30;;;;;;;;;;5038028;28;20418;-80
2022/01/28 02:01:27;;;;;;;11.40;7.67;;;;;;;;;;5038310;28;20434;-80
2022/01/28 02:03:53;;;;;;;15.70;9.07;;;;;;;;;;5037349;28;20421;-80
2022/01/28 02:06:20;;;;;;;11.83;7.40;;;;;;;;;;5035605;28;20942;-80
2022/01/28 02:08:46;;;;;;;10.57;7.30;;;;;;;;;;5035627;28;20847;-80
2022/01/28 02:11:12;;;;;;;11.00;7.80;;;;;;;;;;5038915;28;20778;-80
2022/01/28 02:13:40;;;;;;;8.77;6.40;;;;;;;;;;5039315;28;20481;-80
2022/01/28 02:16:07;;;;;;;12.90;7.30;;;;;;;;;;5041414;28;20403;-80
2022/01/28 02:18:33;;;;;;;9.80;7.40;;;;;;;;;;5042141;28;20418;-80
2022/01/28 02:21:06;;;;;;;8.67;6.70;;;;;;;;;;5040958;28;20454;-80
2022/01/28 02:23:33;;;;;;;10.17;7.20;;;;;;;;;;5041219;28;20399;-80
2022/01/28 02:26:00;;;;;;;9.77;7.00;;;;;;;;;;5040281;28;20910;-80
2022/01/28 02:28:29;;;;;;;11.13;6.80;;;;;;;;;;5038626;28;20448;-80
2022/01/28 02:30:55;;;;;;;9.50;6.67;;;;;;;;;;5039280;28;20991;-80
2022/01/28 02:33:24;;;;;;;10.20;7.07;;;;;;;;;;5034062;28;20485;-80
2022/01/28 02:35:51;;;;;;;11.40;7.40;;;;;;;;;;5027220;28;20435;-80
2022/01/28 02:38:18;;;;;;;12.80;8.40;;;;;;;;;;5020502;28;20420;-80
2022/01/28 02:40:49;;;;;;;9.10;6.67;;;;;;;;;;5020421;28;20420;-80
2022/01/28 02:45:46;;;;;;;8.97;7.27;;;;;;;;;;5020522;28;20895;-79
2022/01/28 02:48:25;;;;;;;11.63;7.07;;;;;;;;;;5020116;28;20714;-79
2022/01/28 02:53:26;;;;;;;10.90;7.20;;;;;;;;;;5019743;28;20446;-79
2022/01/28 02:56:02;;;;;;;11.30;6.00;;;;;;;;;;5020022;28;20483;-78
2022/01/28 02:58:28;;;;;;;7.97;6.37;;;;;;;;;;5018560;28;20919;-79
2022/01/28 03:00:55;;;;;;;12.10;7.70;;;;;;;;;;5019096;28;20431;-79
2022/01/28 03:03:25;;;;;;;9.50;6.13;;;;;;;;;;5019344;28;20911;-78
2022/01/28 03:05:51;;;;;;;9.30;6.20;;;;;;;;;;5020441;28;20408;-79
2022/01/28 03:08:19;;;;;;;10.97;6.40;;;;;;;;;;5019409;28;20435;-78
2022/01/28 03:21:37;;;;;;;10.57;6.87;;;;;;;;;;5019207;28;20427;-80
2022/01/28 03:24:05;;;;;;;9.93;6.90;;;;;;;;;;5017507;28;20412;-80
2022/01/28 03:26:31;;;;;;;13.40;7.73;;;;;;;;;;5018827;28;20419;-79
2022/01/28 03:28:58;;;;;;;10.80;7.10;;;;;;;;;;5017343;28;20419;-80
2022/01/28 03:31:24;;;;;;;9.77;7.40;;;;;;;;;;5018768;28;20426;-80
2022/01/28 03:33:50;;;;;;;10.37;6.63;;;;;;;;;;5017676;28;20478;-80
2022/01/28 03:36:16;;;;;;;7.77;5.77;;;;;;;;;;5018957;28;20414;-80
2022/01/28 03:38:43;;;;;;;8.80;6.10;;;;;;;;;;5017562;28;20494;-80
2022/01/28 03:41:15;;;;;;;10.73;6.87;;;;;;;;;;5018845;28;20435;-80
2022/01/28 03:43:41;;;;;;;10.40;7.53;;;;;;;;;;5018395;28;20504;-79
2022/01/28 03:46:07;;;;;;;11.80;6.73;;;;;;;;;;5017311;28;20415;-80
2022/01/28 03:48:33;;;;;;;8.43;5.93;;;;;;;;;;5017228;28;20459;-80
2022/01/28 03:50:59;;;;;;;8.00;6.27;;;;;;;;;;5018641;28;20867;-80
2022/01/28 03:53:25;;;;;;;10.63;6.63;;;;;;;;;;5016605;28;20987;-79
2022/01/28 03:55:53;;;;;;;11.03;6.20;;;;;;;;;;5019802;28;20423;-80
2022/01/28 03:58:19;;;;;;;9.40;6.53;;;;;;;;;;5019197;28;20415;-80
2022/01/28 04:00:46;;;;;;;8.43;6.37;;;;;;;;;;5019130;28;20431;-80
2022/01/28 04:03:37;;;;;;;8.67;6.50;;;;;;;;;;5020101;28;20411;-79
2022/01/28 04:11:38;;;;;;;10.27;6.27;;;;;;;;;;5028529;28;20449;-79
2022/01/28 04:14:17;;;;;;;7.87;6.10;;;;;;;;;;5037206;28;20451;-80
2022/01/28 04:19:28;;;;;;;7.77;6.00;;;;;;;;;;5038292;28;20422;-79
2022/01/28 04:21:55;;;;;;;8.37;6.10;;;;;;;;;;5037603;28;20500;-78
2022/01/28 04:24:21;;;;;;;9.33;5.87;;;;;;;;;;5037488;28;20414;-79
2022/01/28 04:26:47;;;;;;;10.33;7.20;;;;;;;;;;5038074;28;20410;-79
2022/01/28 04:29:13;;;;;;;9.40;6.90;;;;;;;;;;5037631;28;20485;-79
2022/01/28 04:31:46;;;;;;;8.83;6.40;;;;;;;;;;5036960;28;20395;-78
2022/01/28 04:34:12;;;;;;;8.47;5.80;;;;;;;;;;5035890;28;20462;-79
2022/01/28 04:36:48;;;;;;;8.57;6.50;;;;;;;;;;5037257;28;20407;-80
2022/01/28 04:39:29;;;;;;;7.63;5.53;;;;;;;;;;5036870;28;20802;-79
2022/01/28 04:47:46;;;;;;;8.03;6.10;;;;;;;;;;5036232;28;20462;-79
2022/01/28 04:50:25;;;;;;;10.60;5.83;;;;;;;;;;5016717;28;20630;-79
2022/01/28 05:11:25;;;;;;;8.27;6.40;;;;;;;;;;5016622;28;20792;-79
2022/01/28 05:28:13;;;;;;;7.07;5.73;;;;;;;;;;5004943;28;20414;-79
2022/01/28 05:30:39;;;;;;;8.93;6.63;;;;;;;;;;5016835;28;20510;-79
2022/01/28 05:33:05;;;;;;;6.30;5.30;;;;;;;;;;5016033;28;20611;-79
2022/01/28 05:35:31;;;;;;;6.07;5.47;;;;;;;;;;5016680;28;20408;-79
2022/01/28 05:37:57;;;;;;;6.97;5.67;;;;;;;;;;5016695;28;20419;-79
2022/01/28 05:40:23;;;;;;;10.03;6.10;;;;;;;;;;5015156;28;20432;-79
2022/01/28 05:42:49;;;;;;;10.60;5.37;;;;;;;;;;5016044;28;20416;-79
2022/01/28 05:45:15;;;;;;;8.20;5.13;;;;;;;;;;5017681;28;20399;-79
2022/01/28 05:47:41;;;;;;;7.90;5.23;;;;;;;;;;5019082;28;20495;-79
2022/01/28 05:50:08;;;;;;;9.33;5.93;;;;;;;;;;5021922;28;20482;-79
2022/01/28 05:52:34;;;;;;;8.00;5.23;;;;;;;;;;5021257;28;20840;-80
2022/01/28 05:55:00;;;;;;;7.57;5.97;;;;;;;;;;5023993;28;20423;-80
2022/01/28 05:57:26;;;;;;;8.00;6.50;;;;;;;;;;5020902;28;20408;-80
2022/01/28 05:59:52;;;;;;;7.53;5.73;;;;;;;;;;5020504;28;20434;-79
2022/01/28 06:02:19;;;;;;;8.37;6.13;;;;;;;;;;5020374;28;21027;-80
2022/01/28 06:04:45;;;;;;;8.60;6.50;;;;;;;;;;5018728;28;20443;-80
2022/01/28 06:07:12;;;;;;;9.80;6.40;;;;;;;;;;5019696;28;21059;-80
2022/01/28 06:09:38;;;;;;;12.30;6.57;;;;;;;;;;5018968;28;20435;-79
2022/01/28 06:12:04;;;;;;;11.23;5.90;;;;;;;;;;5019954;28;20423;-80
2022/01/28 06:14:30;;;;;;;10.20;7.20;;;;;;;;;;5020175;28;20483;-80
2022/01/28 06:16:56;;;;;;;8.60;5.80;;;;;;;;;;5020309;28;20457;-79
2022/01/28 06:19:22;;;;;;;8.47;5.80;;;;;;;;;;5018913;28;20430;-79
2022/01/28 06:21:48;;;;;;;7.90;5.63;;;;;;;;;;5019564;28;20923;-78
2022/01/28 06:24:14;;;;;;;10.47;5.57;;;;;;;;;;5022718;28;20399;-78
2022/01/28 06:26:41;;;;;;;7.33;5.43;;;;;;;;;;5021533;28;20787;-79
2022/01/28 06:29:07;;;;;;;8.60;6.13;;;;;;;;;;5020297;28;20438;-79
2022/01/28 06:31:33;;;;;;;8.70;5.10;;;;;;;;;;5021084;28;20777;-77
2022/01/28 06:33:59;;;;;;;7.73;5.53;;;;;;;;;;5021315;28;20451;-79
2022/01/28 06:36:25;;;;;;;6.07;4.67;;;;;;;;;;5022189;28;20396;-80
2022/01/28 06:38:51;;;;;;;12.10;6.47;;;;;;;;;;5021555;28;20404;-80
2022/01/28 06:41:18;;;;;;;7.57;5.07;;;;;;;;;;5019910;28;20404;-79
2022/01/28 06:43:44;;;;;;;9.70;5.60;;;;;;;;;;5020896;28;20454;-79
2022/01/28 06:46:10;;;;;;;10.40;5.97;;;;;;;;;;5020873;28;20408;-78
2022/01/28 06:48:36;;;;;;;16.93;6.77;;;;;;;;;;5019901;28;20407;-81
2022/01/28 06:51:02;;;;;;;7.70;5.07;;;;;;;;;;5019859;28;20435;-79
2022/01/28 06:53:28;;;;;;;7.43;5.30;;;;;;;;;;5019957;28;20455;-79
2022/01/28 06:55:54;;;;;;;9.40;6.00;;;;;;;;;;5019800;28;20412;-79
2022/01/28 06:58:20;;;;;;;10.27;6.77;;;;;;;;;;5021880;28;20782;-80
2022/01/28 07:00:46;;;;;;;9.03;5.97;;;;;;;;;;5033687;28;20446;-81
2022/01/28 07:03:14;;;;;;;8.13;6.10;;;;;;;;;;5019108;28;20875;-80
2022/01/28 07:05:41;;;;;;;9.60;6.17;;;;;;;;;;5019696;28;20505;-80
2022/01/28 07:08:07;;;;;;;10.23;6.00;;;;;;;;;;5020452;28;20423;-80
2022/01/28 07:10:34;;;;;;;7.77;5.80;;;;;;;;;;5020476;28;20435;-79
2022/01/28 07:13:00;;;;;;;10.40;6.63;;;;;;;;;;5020771;28;20959;-80
2022/01/28 07:15:27;;;;;;;10.80;7.00;;;;;;;;;;5020247;28;20531;-77
2022/01/28 07:17:54;;;;;;;12.00;6.30;;;;;;;;;;5034184;28;20907;-79
2022/01/28 07:20:20;;;;;;;10.80;6.73;;;;;;;;;;5029034;28;20458;-79
2022/01/28 07:22:46;;;;;;;12.80;7.50;;;;;;;;;;5028443;28;20424;-79
2022/01/28 07:25:12;;;;;;;17.83;8.13;;;;;;;;;;5025462;28;20432;-77
2022/01/28 07:27:39;;;;;;;15.13;8.87;;;;;;;;;;5027207;28;20487;-80
2022/01/28 07:30:06;;;;;;;13.13;8.17;;;;;;;;;;5025260;28;20443;-80
2022/01/28 07:32:32;;;;;;;12.80;7.83;;;;;;;;;;5026522;28;20611;-80
2022/01/28 07:34:58;;;;;;;14.90;8.23;;;;;;;;;;5020229;28;20420;-80
2022/01/28 07:37:25;;;;;;;13.57;8.27;;;;;;;;;;5033867;28;20460;-79
2022/01/28 07:39:51;;;;;;;17.20;8.13;;;;;;;;;;5021277;28;20498;-80
2022/01/28 07:42:18;;;;;;;13.83;7.80;;;;;;;;;;5031641;28;20759;-79
2022/01/28 07:44:45;;;;;;;9.80;7.87;;;;;;;;;;5027863;28;20418;-79
2022/01/28 07:47:11;;;;;;;13.73;8.17;;;;;;;;;;5033672;28;20423;-80
2022/01/28 07:49:37;;;;;;;9.20;7.27;;;;;;;;;;5033951;28;20482;-81
2022/01/28 07:52:04;;;;;;;11.30;7.30;;;;;;;;;;5047779;22;20499;-79
2022/01/28 07:54:30;;;;;;;9.93;7.30;;;;;;;;;;5014143;28;20468;-79
2022/01/28 07:56:56;;;;;;;13.17;8.00;;;;;;;;;;5013781;28;20936;-79
2022/01/28 07:59:22;;;;;;;14.50;8.00;;;;;;;;;;5013682;28;20438;-79
2022/01/28 08:01:48;;;;;;;10.50;7.73;;;;;;;;;;5007839;28;20436;-79
2022/01/28 08:04:14;;;;;;;11.17;7.07;;;;;;;;;;5011286;28;20440;-79
2022/01/28 08:06:40;;;;;;;10.77;8.20;;;;;;;;;;5016318;28;20449;-79
2022/01/28 08:09:07;;;;;;;8.93;6.53;;;;;;;;;;5015331;28;20427;-78
2022/01/28 08:11:34;;;;;;;15.93;8.00;;;;;;;;;;5014446;28;20796;-77
2022/01/28 08:14:00;;;;;;;11.00;7.40;;;;;;;;;;5013422;28;20457;-77
2022/01/28 08:16:26;;;;;;;12.27;7.47;;;;;;;;;;5013366;28;20498;-77
2022/01/28 08:18:52;;;;;;;10.13;6.50;;;;;;;;;;5013745;28;20777;-77
2022/01/28 08:21:18;;;;;;;10.57;6.80;;;;;;;;;;5009028;28;20816;-77
2022/01/28 08:23:44;;;;;;;9.50;6.83;;;;;;;;;;5013395;28;20420;-77
2022/01/28 08:26:11;;;;;;;10.00;6.70;;;;;;;;;;5006705;28;20423;-77
2022/01/28 08:28:41;;;;;;;10.40;5.83;;;;;;;;;;5012452;28;20435;-77
2022/01/28 08:31:07;;;;;;;8.00;5.70;;;;;;;;;;5013620;28;20494;-77
2022/01/28 08:33:33;;;;;;;8.90;6.47;;;;;;;;;;5012418;28;20495;-77
2022/01/28 08:36:01;;;;;;;9.60;6.20;;;;;;;;;;5009296;28;20443;-76
2022/01/28 08:38:36;;;;;;;10.60;4.70;;;;;;;;;;5010850;28;20411;-77
2022/01/28 08:41:02;;;;;;;8.60;5.50;;;;;;;;;;5010158;28;20435;-78
2022/01/28 08:43:28;;;;;;;8.07;5.37;;;;;;;;;;5003834;28;20491;-78
2022/01/28 08:45:55;;;;;;;8.20;5.60;;;;;;;;;;5011360;28;20428;-78
2022/01/28 08:48:21;;;;;;;7.90;5.27;;;;;;;;;;5012762;28;20938;-78
2022/01/28 08:50:47;;;;;;;8.37;5.00;;;;;;;;;;5008464;28;20420;-78
2022/01/28 08:53:13;;;;;;;6.20;4.93;;;;;;;;;;5010170;28;20509;-78
2022/01/28 08:55:40;;;;;;;9.13;5.90;;;;;;;;;;5015498;28;20977;-78
2022/01/28 08:58:06;;;;;;;8.80;5.80;;;;;;;;;;5019384;28;20412;-78
2022/01/28 09:00:32;;;;;;;12.07;5.30;;;;;;;;;;5019963;28;20431;-78
2022/01/28 09:02:59;;;;;;;8.37;4.90;;;;;;;;;;5011861;28;20451;-78
2022/01/28 09:05:25;;;;;;;9.97;4.80;;;;;;;;;;5010679;28;20791;-78
2022/01/28 09:07:52;;;;;;;9.13;5.63;;;;;;;;;;5015016;28;20450;-77
2022/01/28 09:10:18;;;;;;;9.27;4.80;;;;;;;;;;5012731;28;20453;-78
2022/01/28 09:13:46;;;;;;;8.70;5.40;;;;;;;;;;5005623;28;20574;-77
2022/01/28 09:15:41;;;;;;;9.47;4.57;;;;;;;;;;5001979;28;20494;-79
2022/01/28 09:18:12;;;;;;;8.67;5.40;;;;;;;;;;5012690;28;20875;-78
2022/01/28 09:20:38;;;;;;;7.50;5.30;;;;;;;;;;5005923;28;20416;-78
2022/01/28 09:23:05;;;;;;;8.23;4.93;;;;;;;;;;5012797;28;20443;-78
2022/01/28 09:25:33;;;;;;;12.93;5.50;;;;;;;;;;5014005;28;20499;-75
2022/01/28 09:27:59;;;;;;;6.40;4.77;;;;;;;;;;4998323;28;20494;-79
2022/01/28 09:30:26;;;;;;;11.70;4.70;;;;;;;;;;5015573;28;20430;-77
2022/01/28 09:32:52;;;;;;;8.13;5.80;;;;;;;;;;5017549;28;20765;-78
2022/01/28 09:35:19;;;;;;;8.53;5.50;;;;;;;;;;5031525;28;20522;-77
2022/01/28 09:37:45;;;;;;;9.20;5.57;;;;;;;;;;5020447;28;20501;-78
2022/01/28 09:40:11;;;;;;;7.93;4.77;;;;;;;;;;5026971;28;20423;-77
2022/01/28 09:42:41;;;;;;;5.37;4.47;;;;;;;;;;5012593;28;20446;-77
2022/01/28 09:45:09;;;;;;;9.50;4.60;;;;;;;;;;5009492;28;20506;-77
2022/01/28 09:47:35;;;;;;;6.37;4.20;;;;;;;;;;5004938;28;20866;-77
2022/01/28 09:50:02;;;;;;;7.57;4.23;;;;;;;;;;5011397;28;20460;-78
2022/01/28 09:52:28;;;;;;;6.17;4.40;;;;;;;;;;5011367;28;20464;-77
2022/01/28 09:54:54;;;;;;;7.37;4.43;;;;;;;;;;5030519;28;20459;-79
2022/01/28 09:57:20;;;;;;;6.50;4.20;;;;;;;;;;5015267;28;20857;-77
2022/01/28 09:59:47;;;;;;;6.83;4.17;;;;;;;;;;5016753;28;20458;-77
2022/01/28 10:02:13;;;;;;;7.33;4.40;;;;;;;;;;5013847;28;20435;-77
2022/01/28 10:04:39;;;;;;;5.10;3.97;;;;;;;;;;5015282;28;20433;-77
2022/01/28 10:07:15;;;;;;;10.40;4.70;;;;;;;;;;5017166;28;20419;-78
2022/01/28 10:09:58;;;;;;;9.47;5.10;;;;;;;;;;5014684;28;20492;-78
2022/01/28 10:12:40;;;;;;;9.83;4.20;;;;;;;;;;5014837;28;20442;-78
2022/01/28 10:15:17;;;;;;;11.00;5.13;;;;;;;;;;5013782;28;20416;-78
2022/01/28 10:17:54;;;;;;;9.27;5.33;;;;;;;;;;5008755;28;20507;-79
2022/01/28 10:20:21;;;;;;;6.30;4.30;;;;;;;;;;5016222;28;20423;-78
2022/01/28 10:23:06;;;;;;;8.33;4.37;;;;;;;;;;5011777;28;20473;-77
2022/01/28 10:25:34;;;;;;;5.40;4.00;;;;;;;;;;5010958;28;20423;-77
2022/01/28 10:28:00;;;;;;;6.30;4.10;;;;;;;;;;5013607;28;20800;-78
2022/01/28 10:30:27;;;;;;;6.40;4.03;;;;;;;;;;5008140;28;20442;-79
2022/01/28 10:33:11;;;;;;;7.17;4.07;;;;;;;;;;5017791;28;20466;-79
2022/01/28 10:35:38;;;;;;;6.33;4.40;;;;;;;;;;5011526;28;20860;-79
2022/01/28 10:38:07;;;;;;;9.03;4.00;;;;;;;;;;5012406;28;20427;-79
2022/01/28 10:40:34;;;;;;;7.50;3.67;;;;;;;;;;5018505;28;20514;-79
2022/01/28 10:43:00;;;;;;;3.50;2.53;;;;;;;;;;5017502;28;20443;-79
2022/01/28 10:45:31;;;;;;;4.93;2.83;;;;;;;;;;5013909;28;20459;-78
2022/01/28 10:47:58;;;;;;;6.07;4.33;;;;;;;;;;5018753;28;20433;-79
2022/01/28 10:50:26;;;;;;;4.23;3.40;;;;;;;;;;5013422;28;20458;-79
2022/01/28 10:52:59;;;;;;;7.60;4.20;;;;;;;;;;5014847;28;20557;-78
2022/01/28 10:55:25;;;;;;;11.60;4.03;;;;;;;;;;5017103;28;20427;-79
2022/01/28 10:57:59;;;;;;;6.93;3.80;;;;;;;;;;5016523;28;20411;-78
2022/01/28 11:00:27;;;;;;;5.80;3.37;;;;;;;;;;5007242;28;20420;-78
2022/01/28 11:02:54;;;;;;;5.60;3.30;;;;;;;;;;5017706;28;20526;-78
2022/01/28 11:05:21;;;;;;;8.03;4.30;;;;;;;;;;5015948;28;20830;-79
2022/01/28 11:07:48;;;;;;;12.77;4.17;;;;;;;;;;5016800;28;20474;-78
2022/01/28 11:10:14;;;;;;;5.33;3.80;;;;;;;;;;5017684;28;20426;-78
2022/01/28 11:12:40;;;;;;;8.40;4.00;;;;;;;;;;5009500;28;21050;-78
2022/01/28 11:15:07;;;;;;;5.80;4.27;;;;;;;;;;5019741;28;20452;-78
2022/01/28 11:17:36;;;;;;;6.37;4.23;;;;;;;;;;5016716;28;20832;-78
2022/01/28 11:20:02;;;;;;;5.00;3.70;;;;;;;;;;5007176;28;20439;-78
2022/01/28 11:22:39;;;;;;;4.77;3.30;;;;;;;;;;5019051;28;20440;-78
2022/01/28 11:25:05;;;;;;;7.07;3.13;;;;;;;;;;5005865;28;20768;-78
2022/01/28 11:27:35;;;;;;;12.97;3.37;;;;;;;;;;5015641;28;20480;-78
2022/01/28 11:30:13;;;;;;;8.53;3.40;;;;;;;;;;5018725;28;20419;-78
2022/01/28 11:32:59;;;;;;;5.50;3.17;;;;;;;;;;5014090;28;20514;-78
2022/01/28 11:35:25;;;;;;;4.00;2.40;;;;;;;;;;5015675;28;20408;-77
2022/01/28 11:37:54;;;;;;;5.20;2.60;;;;;;;;;;5006660;28;20489;-78
2022/01/28 11:40:20;;;;;;;8.03;3.70;;;;;;;;;;5016070;28;20458;-78
2022/01/28 11:42:46;;;;;;;4.97;2.60;;;;;;;;;;5016945;28;20494;-79
2022/01/28 11:45:12;;;;;;;5.07;2.70;;;;;;;;;;5013969;28;20491;-80
2022/01/28 11:47:40;;;;;;;8.30;3.13;;;;;;;;;;5006081;28;20481;-79
2022/01/28 11:50:12;;;;;;;4.90;2.67;;;;;;;;;;5011296;28;20423;-78
2022/01/28 11:52:40;;;;;;;4.30;2.77;;;;;;;;;;5010219;28;20463;-78
2022/01/28 11:55:16;;;;;;;8.70;3.10;;;;;;;;;;5012303;28;20428;-78
2022/01/28 11:57:55;;;;;;;4.80;3.00;;;;;;;;;;5009516;28;20955;-78
2022/01/28 12:00:22;;;;;;;6.85;2.83;;;;;;;;;;5016204;28;20426;-78
2022/01/28 12:02:49;;;;;;;6.13;2.80;;;;;;;;;;5016883;28;20290;-80
2022/01/28 12:05:25;;;;;;;8.43;3.23;;;;;;;;;;5018267;28;20431;-80
2022/01/28 12:07:51;;;;;;;6.10;2.83;;;;;;;;;;5016124;28;20416;-78
2022/01/28 12:10:18;;;;;;;3.97;2.97;;;;;;;;;;5017447;28;20412;-78
2022/01/28 12:12:46;;;;;;;4.40;2.60;;;;;;;;;;5017914;28;20538;-78
2022/01/28 12:15:15;;;;;;;4.40;2.77;;;;;;;;;;5015878;28;20423;-78
2022/01/28 12:17:42;;;;;;;9.30;2.80;;;;;;;;;;5021899;28;20489;-78
2022/01/28 12:20:15;;;;;;;5.47;2.70;;;;;;;;;;5031540;28;20408;-78
2022/01/28 12:22:59;;;;;;;3.87;2.70;;;;;;;;;;5031423;28;20573;-78
2022/01/28 12:25:44;;;;;;;13.67;2.87;;;;;;;;;;5019262;28;20415;-78
2022/01/28 12:28:24;;;;;;;2.30;2.00;;;;;;;;;;5015811;28;20431;-78
2022/01/28 12:31:03;;;;;;;6.57;3.00;;;;;;;;;;5014467;28;20518;-78
2022/01/28 12:33:31;;;;;;;7.83;2.70;;;;;;;;;;5017440;28;20496;-79
2022/01/28 12:36:00;;;;;;;9.03;3.57;;;;;;;;;;5013083;28;20416;-79
2022/01/28 12:38:31;;;;;;;3.57;2.77;;;;;;;;;;5014293;28;20411;-79
2022/01/28 12:41:05;;;;;;;6.10;3.40;;;;;;;;;;5010609;28;20415;-79
2022/01/28 12:43:32;;;;;;;6.60;3.00;;;;;;;;;;5014334;28;20431;-78
2022/01/28 12:45:58;;;;;;;4.30;3.17;;;;;;;;;;5007583;28;20435;-78
2022/01/28 12:48:24;;;;;;;6.20;3.53;;;;;;;;;;5016158;28;20518;-79
2022/01/28 12:50:51;;;;;;;4.80;3.00;;;;;;;;;;5014557;28;20526;-78
2022/01/28 12:53:26;;;;;;;4.43;3.67;;;;;;;;;;5028778;28;21049;-78
2022/01/28 12:55:52;;;;;;;6.10;4.10;;;;;;;;;;5034137;28;20411;-79
2022/01/28 12:58:18;;;;;;;6.10;4.30;;;;;;;;;;5018522;28;20832;-78
2022/01/28 13:00:44;;;;;;;7.07;3.97;;;;;;;;;;5014179;28;20450;-79
2022/01/28 13:03:24;;;;;;;5.40;4.00;;;;;;;;;;5015033;28;20476;-79
2022/01/28 13:05:56;;;;;;;13.03;4.60;;;;;;;;;;5019291;28;20465;-79
2022/01/28 13:08:25;;;;;;;8.73;4.40;;;;;;;;;;5014431;28;20408;-78
2022/01/28 13:10:51;;;;;;;7.20;4.20;;;;;;;;;;5008208;28;20429;-78
2022/01/28 13:13:19;;;;;;;8.23;4.03;;;;;;;;;;5015774;28;20455;-77
2022/01/28 13:15:53;;;;;;;9.30;3.70;;;;;;;;;;5010912;28;20412;-77
2022/01/28 13:18:19;;;;;;;7.03;4.40;;;;;;;;;;5014793;28;20500;-79
2022/01/28 13:20:45;;;;;;;11.18;4.20;;;;;;;;;;5013928;28;20423;-78
2022/01/28 13:23:13;;;;;;;10.93;3.70;;;;;;;;;;5015778;28;20184;-81
2022/01/28 13:25:40;;;;;;;8.63;4.63;;;;;;;;;;5017643;28;20420;-80
2022/01/28 13:28:13;;;;;;;5.13;3.53;;;;;;;;;;5014015;28;20450;-80
2022/01/28 13:30:40;;;;;;;9.97;3.90;;;;;;;;;;5015806;28;20423;-80
2022/01/28 13:33:08;;;;;;;8.93;3.57;;;;;;;;;;5012582;28;20454;-80
2022/01/28 13:35:35;;;;;;;6.50;3.60;;;;;;;;;;5008004;28;20420;-79
2022/01/28 13:38:06;;;;;;;6.33;3.63;;;;;;;;;;5012873;28;20428;-81
2022/01/28 13:40:37;;;;;;;7.20;3.20;;;;;;;;;;5004834;28;20432;-80
2022/01/28 13:43:10;;;;;;;4.73;3.07;;;;;;;;;;5019916;28;20455;-79
2022/01/28 13:45:39;;;;;;;5.90;2.70;;;;;;;;;;5016451;28;20478;-80
2022/01/28 13:48:19;;;;;;;5.10;2.53;;;;;;;;;;5003994;28;20912;-80
2022/01/28 13:50:47;;;;;;;5.47;2.20;;;;;;;;;;5003915;28;20427;-81
2022/01/28 13:55:46;;;;;;;3.90;2.20;;;;;;;;;;5016195;28;20888;-79
2022/01/28 13:58:12;;;;;;;9.90;5.27;;;;;;;;;;5011679;28;20940;-82
2022/01/28 14:00:46;;;;;;;5.30;2.10;;;;;;;;;;4996467;28;20417;-81
2022/01/28 14:03:16;;;;;;;5.70;2.55;;;;;;;;;;5007613;28;20919;-80
2022/01/28 14:05:49;;;;;;;5.30;2.40;;;;;;;;;;5005814;28;20181;-80
2022/01/28 14:08:15;;;;;;;3.70;2.40;;;;;;;;;;5012702;28;20924;-80
2022/01/28 14:10:41;;;;;;;4.33;2.17;;;;;;;;;;5011908;28;20426;-80
2022/01/28 14:13:21;;;;;;;7.37;2.27;;;;;;;;;;5019152;28;20443;-80
2022/01/28 14:16:04;;;;;;;2.70;2.00;;;;;;;;;;5018883;28;20451;-78
2022/01/28 14:18:30;;;;;;;5.23;2.23;;;;;;;;;;5012529;28;20423;-80
2022/01/28 14:20:57;;;;;;;2.57;1.97;;;;;;;;;;5012954;28;20573;-79
2022/01/28 14:23:23;;;;;;;4.90;2.47;;;;;;;;;;5008841;28;20420;-79
2022/01/28 14:25:49;;;;;;;6.90;2.47;;;;;;;;;;5013965;28;20427;-79
2022/01/28 14:30:54;;;;;;;3.90;2.40;;;;;;;;;;5019449;28;20400;-80
2022/01/28 14:33:20;;;;;;;7.93;2.73;;;;;;;;;;5017789;28;20497;-81
2022/01/28 14:35:46;;;;;;;5.43;2.63;;;;;;;;;;5017802;28;20478;-81
2022/01/28 14:38:12;;;;;;;5.83;3.10;;;;;;;;;;5018116;28;20848;-80
2022/01/28 14:40:38;;;;;;;4.27;2.37;;;;;;;;;;5018238;28;20963;-80
2022/01/28 14:43:05;;;;;;;6.30;2.73;;;;;;;;;;4998735;28;20424;-80
2022/01/28 14:45:31;;;;;;;4.20;2.00;;;;;;;;;;5012532;28;20412;-79
2022/01/28 14:47:57;;;;;;;4.07;2.10;;;;;;;;;;5018771;28;20431;-79
2022/01/28 14:50:23;;;;;;;4.30;1.73;;;;;;;;;;5016067;28;20412;-81
2022/01/28 14:52:49;;;;;;;5.90;3.10;;;;;;;;;;5012443;28;20562;-81
2022/01/28 14:55:15;;;;;;;7.90;2.40;;;;;;;;;;5015242;28;20448;-80
2022/01/28 14:57:41;;;;;;;3.93;1.90;;;;;;;;;;5008465;28;20415;-80
2022/01/28 15:00:09;;;;;;;4.47;2.10;;;;;;;;;;5017704;28;20474;-79
2022/01/28 15:02:35;;;;;;;5.50;2.33;;;;;;;;;;5017264;28;20435;-79
2022/01/28 15:05:01;;;;;;;4.53;2.50;;;;;;;;;;5010318;28;20408;-79
2022/01/28 15:07:31;;;;;;;6.33;2.50;;;;;;;;;;5018582;28;20431;-79
2022/01/28 15:09:59;;;;;;;3.87;2.40;;;;;;;;;;5015978;28;20491;-80
2022/01/28 15:12:25;;;;;;;4.47;2.50;;;;;;;;;;5011776;28;20425;-78
2022/01/28 15:14:51;;;;;;;5.73;1.90;;;;;;;;;;5025913;28;20275;-79
2022/01/28 15:17:17;;;;;;;9.90;2.87;;;;;;;;;;5029819;28;20408;-78
2022/01/28 15:19:44;;;;;;;6.90;2.70;;;;;;;;;;5023991;28;20427;-80
2022/01/28 15:22:13;;;;;;;6.57;2.80;;;;;;;;;;5025614;28;20450;-79
2022/01/28 15:24:39;;;;;;;6.60;2.73;;;;;;;;;;5028995;28;20881;-80
2022/01/28 15:27:06;;;;;;;7.70;3.00;;;;;;;;;;5023410;28;20411;-80
2022/01/28 15:29:45;;;;;;;8.70;3.13;;;;;;;;;;5027964;28;20772;-80
2022/01/28 15:37:21;;;;;;;6.30;2.63;;;;;;;;;;5025848;28;20546;-79
2022/01/28 15:39:47;;;;;;;4.33;2.90;;;;;;;;;;5018670;28;20427;-79
2022/01/28 15:42:14;;;;;;;5.83;2.93;;;;;;;;;;5018054;28;20428;-80
2022/01/28 15:44:40;;;;;;;4.60;2.30;;;;;;;;;;5019311;28;20478;-80
2022/01/28 15:47:07;;;;;;;4.20;3.80;;;;;;;;;;5019311;28;20408;-80
2022/01/28 15:49:33;;;;;;;12.20;3.30;;;;;;;;;;5020462;28;20944;-80
2022/01/28 15:52:00;;;;;;;7.85;2.80;;;;;;;;;;5028375;28;20425;-78
2022/01/28 15:54:26;;;;;;;6.70;2.70;;;;;;;;;;5027409;28;20212;-80
2022/01/28 15:56:53;;;;;;;8.13;3.37;;;;;;;;;;5020006;28;20415;-81
2022/01/28 15:59:19;;;;;;;3.60;2.53;;;;;;;;;;5017742;28;20469;-79
2022/01/28 16:01:45;;;;;;;4.37;2.60;;;;;;;;;;5017242;28;20490;-79
2022/01/28 16:04:12;;;;;;;9.10;2.90;;;;;;;;;;5016231;28;20427;-78
2022/01/28 16:06:38;;;;;;;12.77;3.50;;;;;;;;;;5019212;28;20492;-80
2022/01/28 16:09:08;;;;;;;6.30;3.23;;;;;;;;;;5016642;28;20415;-79
2022/01/28 16:11:45;;;;;;;7.77;3.13;;;;;;;;;;5018176;28;20435;-79
2022/01/28 16:19:26;;;;;;;6.97;2.90;;;;;;;;;;5017895;28;20398;-80
2022/01/28 16:21:54;;;;;;;4.90;2.87;;;;;;;;;;5017568;28;20436;-79
2022/01/28 16:24:20;;;;;;;6.30;3.00;;;;;;;;;;5016886;28;20400;-80
2022/01/28 16:26:46;;;;;;;5.43;4.30;;;;;;;;;;5016270;28;20473;-80
2022/01/28 16:29:12;;;;;;;8.30;3.40;;;;;;;;;;5017654;28;20510;-79
2022/01/28 16:31:39;;;;;;;5.87;3.10;;;;;;;;;;5015702;28;20473;-79
2022/01/28 16:34:14;;;;;;;6.23;3.57;;;;;;;;;;5016907;28;20482;-80
2022/01/28 16:39:32;;;;;;;6.10;4.00;;;;;;;;;;5033723;28;20493;-79
2022/01/28 16:42:02;;;;;;;5.30;4.00;;;;;;;;;;5036931;28;20429;-79